EDDM

Munich Airport

Airport
ICAO code
EDDM
IATA Code
MUC
Summary
ICAO Region
EUR
ICAO Territory
Location

Freisig,

Serving
Munich
Elevation
1487 ft
Coordinates
48° 21' 14" N , 11° 46' 54" E
KCC
Metar
Observation
EDDM 042220Z AUTO 31002KT 9999 BKN040 M02/M03 Q1037 NOSIG
Station
Munchen
Date/Time
2023-02-04 22:20:00
Wind direction
310°
Wind speed
02 kts
Lowest cloud amount
broken clouds
Temperature
-2°C
Dew point
-3°C
Humidity
92%
QNH
1037 hPa
Weather condition
n/a

Description

International airport serving Munich in Southern Germany.

Climatology

Humid Continental climate (Köppen climate classification Dfb) - Variable weather patterns and a large seasonal temperature variance. Summers are often warm and humid with frequent thunderstorms and winters can be very cold with frequent snowfall and persistent snow cover.

Munich's altitude and proximity to the northern edge of the Alps mean that precipitation is high. Rain storms often come violently and unexpectedly. The range of temperature between day and night or summer and winter can be extreme. A warm downwind from the Alps (a föhn wind) can change the temperatures completely within a few hours, even in the winter.

Runways

Designator Length Width Surface Rops
08L/26R 4000 60 CON Yes/Yes
08R/26L 4000 60 CON Yes/Yes

SKYbrary Partners:

Safety knowledge contributed by: